createdAt,value
2023-10-20T00:01:55.285Z,13.37
2023-10-20T00:04:25.198Z,13.38
2023-10-20T00:06:52.912Z,13.40
2023-10-20T00:09:20.667Z,13.44
2023-10-20T00:11:49.138Z,13.42
2023-10-20T00:14:17.035Z,13.46
2023-10-20T00:16:44.730Z,13.47
2023-10-20T00:19:13.027Z,13.43
2023-10-20T00:21:42.066Z,13.41
2023-10-20T00:24:09.934Z,13.40
2023-10-20T00:26:37.679Z,13.42
2023-10-20T00:29:06.954Z,13.45
2023-10-20T00:31:34.826Z,13.22
2023-10-20T00:34:02.630Z,13.44
2023-10-20T00:36:30.568Z,13.44
2023-10-20T00:38:59.786Z,13.46
2023-10-20T00:41:27.486Z,13.47
2023-10-20T00:43:55.322Z,13.45
2023-10-20T00:46:23.097Z,13.43
2023-10-20T00:48:51.419Z,13.43
2023-10-20T00:51:19.790Z,13.34
2023-10-20T00:53:48.755Z,13.45
2023-10-20T00:56:19.082Z,13.45
2023-10-20T00:58:48.732Z,13.45
2023-10-20T01:01:16.494Z,13.41
2023-10-20T01:03:44.794Z,13.41
2023-10-20T01:06:13.053Z,13.42
2023-10-20T01:08:40.955Z,13.47
2023-10-20T01:11:08.827Z,13.45
2023-10-20T01:13:38.533Z,13.42
2023-10-20T01:16:06.756Z,13.44
2023-10-20T01:18:34.524Z,13.48
2023-10-20T01:21:02.176Z,13.48
2023-10-20T01:23:29.804Z,13.48
2023-10-20T01:25:59.103Z,13.49
2023-10-20T01:28:26.784Z,13.43
2023-10-20T01:30:54.515Z,13.49
2023-10-20T01:33:22.203Z,13.49
2023-10-20T01:35:49.897Z,13.48
2023-10-20T01:38:17.722Z,13.50
2023-10-20T01:40:46.383Z,13.48
2023-10-20T01:43:15.358Z,13.47
2023-10-20T01:45:43.066Z,13.43
2023-10-20T01:48:10.774Z,13.40
2023-10-20T01:50:38.903Z,13.42
2023-10-20T01:53:06.629Z,13.42
2023-10-20T01:55:35.267Z,13.44
2023-10-20T01:58:02.997Z,13.45
2023-10-20T02:00:32.259Z,13.42
2023-10-20T02:03:00.122Z,13.44
2023-10-20T02:05:27.891Z,13.41
2023-10-20T02:07:55.663Z,13.44
2023-10-20T02:10:23.315Z,13.40
2023-10-20T02:12:51.157Z,13.28
2023-10-20T02:15:19.036Z,13.33
2023-10-20T02:17:48.078Z,13.35
2023-10-20T02:20:22.078Z,13.42
2023-10-20T02:22:50.823Z,13.42
2023-10-20T02:25:20.491Z,13.48
2023-10-20T02:27:48.842Z,13.47
2023-10-20T02:30:17.996Z,13.45
2023-10-20T02:32:45.976Z,13.31
2023-10-20T02:35:15.657Z,13.41
2023-10-20T02:37:43.321Z,13.43
2023-10-20T02:40:12.117Z,13.41
2023-10-20T02:42:39.880Z,13.44
2023-10-20T02:45:14.118Z,13.44
2023-10-20T02:47:41.879Z,13.41
2023-10-20T02:50:10.393Z,13.45
2023-10-20T02:52:39.437Z,13.48
2023-10-20T02:55:07.694Z,13.42
2023-10-20T02:57:37.333Z,13.43
2023-10-20T03:00:11.005Z,13.48
2023-10-20T03:02:38.828Z,13.44
2023-10-20T03:05:07.969Z,13.08
2023-10-20T03:07:36.069Z,13.48
2023-10-20T03:10:05.751Z,13.44
2023-10-20T03:12:33.418Z,13.48
2023-10-20T03:15:04.927Z,13.48
2023-10-20T03:17:32.803Z,13.49
2023-10-20T03:20:00.570Z,13.51
2023-10-20T03:22:28.336Z,13.45
2023-10-20T03:24:56.118Z,13.48
2023-10-20T03:27:25.262Z,13.51
2023-10-20T03:29:53.025Z,13.50
2023-10-20T03:32:20.741Z,13.45
2023-10-20T03:34:48.601Z,13.51
2023-10-20T03:37:16.252Z,13.45
2023-10-20T03:39:44.637Z,13.43
2023-10-20T03:42:15.064Z,13.44
2023-10-20T03:44:44.838Z,13.44
2023-10-20T03:47:15.193Z,13.43
2023-10-20T03:49:43.019Z,13.46
2023-10-20T03:52:13.035Z,13.43
2023-10-20T03:54:40.800Z,13.43
2023-10-20T03:57:08.475Z,13.47
2023-10-20T03:59:36.261Z,13.43
2023-10-20T04:02:05.563Z,13.42
2023-10-20T04:04:33.400Z,13.48
2023-10-20T04:07:01.270Z,13.47
2023-10-20T04:09:30.317Z,13.49
2023-10-20T04:11:57.999Z,13.51
2023-10-20T04:14:25.667Z,13.49
2023-10-20T04:16:53.360Z,13.47
2023-10-20T04:19:22.697Z,13.47
2023-10-20T04:21:51.002Z,13.48
2023-10-20T04:24:21.231Z,13.49
2023-10-20T04:26:48.874Z,13.48
2023-10-20T04:29:35.212Z,13.47
2023-10-20T04:32:21.112Z,13.50
2023-10-20T04:35:04.213Z,13.50
2023-10-20T04:37:49.217Z,13.47
2023-10-20T04:40:34.682Z,13.50
2023-10-20T04:43:20.080Z,13.47
2023-10-20T04:46:14.033Z,13.49
2023-10-20T04:48:55.802Z,13.50
2023-10-20T04:51:46.334Z,13.49
2023-10-20T04:54:20.969Z,13.53
2023-10-20T04:57:17.790Z,13.29
2023-10-20T04:59:45.914Z,13.51
2023-10-20T05:02:25.063Z,13.50
2023-10-20T05:04:53.251Z,13.49
2023-10-20T05:07:27.450Z,13.49
2023-10-20T05:09:56.689Z,13.53
2023-10-20T05:12:24.375Z,13.56
2023-10-20T05:14:53.356Z,13.53
2023-10-20T05:17:22.121Z,13.54
2023-10-20T05:19:50.748Z,13.54
2023-10-20T05:22:18.397Z,13.55
2023-10-20T05:24:47.432Z,13.39
2023-10-20T05:27:15.086Z,13.55
2023-10-20T05:29:42.781Z,13.53
2023-10-20T05:32:10.593Z,13.60
2023-10-20T05:34:38.316Z,13.57
2023-10-20T05:37:06.112Z,13.55
2023-10-20T05:39:33.802Z,13.57
2023-10-20T05:42:05.700Z,13.54
2023-10-20T05:44:33.778Z,13.58
2023-10-20T05:47:01.728Z,13.55
2023-10-20T05:49:29.912Z,13.54
2023-10-20T05:51:57.565Z,13.54
2023-10-20T05:54:26.382Z,13.56
2023-10-20T05:56:54.126Z,13.58
2023-10-20T05:59:23.214Z,13.56
2023-10-20T06:01:50.941Z,13.58
2023-10-20T06:04:18.799Z,13.54
2023-10-20T06:06:46.882Z,13.54
2023-10-20T06:09:15.672Z,13.53
2023-10-20T06:11:43.414Z,13.54
2023-10-20T06:14:11.877Z,13.51
2023-10-20T06:16:40.947Z,13.51
2023-10-20T06:19:08.638Z,13.52
2023-10-20T06:21:36.463Z,13.49
2023-10-20T06:24:05.044Z,13.49
2023-10-20T06:26:33.130Z,13.50
2023-10-20T06:29:00.781Z,13.52
2023-10-20T06:31:43.168Z,13.43
2023-10-20T06:34:23.647Z,13.42
2023-10-20T06:36:54.989Z,13.44
2023-10-20T06:39:22.624Z,13.40
2023-10-20T06:41:50.286Z,13.42
2023-10-20T06:44:18.030Z,13.44
2023-10-20T06:46:46.342Z,13.43
2023-10-20T06:49:19.757Z,13.42
2023-10-20T06:51:49.085Z,13.40
2023-10-20T06:54:17.208Z,13.39
2023-10-20T06:56:44.956Z,13.37
2023-10-20T06:59:15.062Z,13.35
2023-10-20T07:01:44.893Z,13.31
2023-10-20T07:04:13.370Z,13.32
2023-10-20T07:06:42.480Z,13.29
2023-10-20T07:09:15.007Z,13.17
2023-10-20T07:11:44.534Z,13.31
2023-10-20T07:14:12.500Z,13.29
2023-10-20T07:16:40.218Z,13.29
2023-10-20T07:19:08.124Z,13.31
2023-10-20T07:21:36.669Z,13.31
2023-10-20T07:24:06.246Z,13.30
2023-10-20T07:26:34.035Z,13.26
2023-10-20T07:29:02.451Z,13.29
2023-10-20T07:31:30.257Z,13.28
2023-10-20T07:33:59.247Z,13.26
2023-10-20T07:36:27.025Z,13.23
2023-10-20T07:38:54.757Z,13.24
2023-10-20T07:41:23.868Z,13.22
2023-10-20T07:43:51.593Z,13.22
2023-10-20T07:46:19.606Z,13.20
2023-10-20T07:48:47.687Z,13.24
2023-10-20T07:51:15.747Z,12.75
2023-10-20T07:53:43.549Z,13.22
2023-10-20T07:56:11.318Z,13.18
2023-10-20T07:58:40.644Z,13.20
2023-10-20T08:01:08.622Z,13.26
2023-10-20T08:03:36.509Z,13.23
2023-10-20T08:06:05.290Z,13.21
2023-10-20T08:08:33.851Z,13.20
2023-10-20T08:11:05.655Z,13.24
2023-10-20T08:13:34.979Z,13.24
2023-10-20T08:16:05.986Z,13.17
2023-10-20T08:18:35.420Z,13.21
2023-10-20T08:21:08.367Z,13.16
2023-10-20T08:23:36.447Z,13.13
2023-10-20T08:26:04.230Z,13.10
2023-10-20T08:28:32.023Z,13.09
2023-10-20T08:31:13.996Z,13.08
2023-10-20T08:33:41.923Z,13.13
2023-10-20T08:36:14.274Z,13.06
2023-10-20T08:38:43.632Z,13.09
2023-10-20T08:41:13.852Z,13.10
2023-10-20T08:43:43.187Z,12.96
2023-10-20T08:46:14.636Z,13.05
2023-10-20T08:48:43.331Z,13.02
2023-10-20T08:51:13.229Z,13.08
2023-10-20T08:53:42.817Z,12.75
2023-10-20T08:56:13.054Z,13.10
2023-10-20T08:58:41.309Z,13.06
2023-10-20T09:01:09.244Z,13.10
2023-10-20T09:03:42.505Z,13.07
2023-10-20T09:06:13.409Z,13.05
2023-10-20T09:08:41.786Z,13.02
2023-10-20T09:11:10.158Z,13.06
2023-10-20T09:13:41.012Z,13.07
2023-10-20T09:16:10.835Z,13.05
2023-10-20T09:18:51.006Z,13.08
2023-10-20T09:21:19.938Z,12.98
2023-10-20T09:23:58.376Z,12.98
2023-10-20T09:26:27.842Z,12.99
2023-10-20T09:28:57.396Z,12.92
2023-10-20T09:31:28.210Z,12.91
2023-10-20T09:33:57.569Z,12.87
2023-10-20T09:36:25.534Z,12.86
2023-10-20T09:38:54.608Z,12.86
2023-10-20T09:41:24.358Z,12.87
2023-10-20T09:43:54.621Z,12.90
2023-10-20T09:46:34.098Z,12.90
2023-10-20T09:49:12.577Z,12.89
2023-10-20T09:51:40.657Z,12.91
2023-10-20T09:54:08.488Z,12.88
2023-10-20T09:56:36.337Z,12.88
2023-10-20T09:59:07.875Z,12.92
2023-10-20T10:01:35.757Z,12.87
2023-10-20T10:04:05.626Z,12.89
2023-10-20T10:06:37.860Z,12.95
2023-10-20T10:09:06.838Z,12.91
2023-10-20T10:11:41.327Z,12.87
2023-10-20T10:14:10.029Z,12.97
2023-10-20T10:16:49.860Z,12.90
2023-10-20T10:19:19.823Z,12.86
2023-10-20T10:21:52.478Z,12.86
2023-10-20T10:24:33.191Z,12.79
2023-10-20T10:27:04.295Z,12.82
2023-10-20T10:29:54.394Z,12.55
2023-10-20T10:32:27.954Z,12.74
2023-10-20T10:34:58.171Z,12.77
2023-10-20T10:37:34.446Z,12.49
2023-10-20T10:40:09.227Z,12.67
2023-10-20T10:42:41.265Z,12.36
2023-10-20T10:45:25.186Z,12.75
2023-10-20T10:48:04.526Z,12.78
2023-10-20T10:50:34.816Z,12.75
2023-10-20T10:53:03.369Z,12.76
2023-10-20T10:55:32.048Z,12.79
2023-10-20T10:58:00.126Z,12.81
2023-10-20T11:00:28.879Z,12.81
2023-10-20T11:02:58.522Z,12.84
2023-10-20T11:05:26.946Z,12.83
2023-10-20T11:08:02.558Z,12.90
2023-10-20T11:10:31.100Z,12.89
2023-10-20T11:12:59.947Z,12.87
2023-10-20T11:15:29.848Z,12.88
2023-10-20T11:18:00.076Z,12.88
2023-10-20T11:20:30.935Z,12.61
2023-10-20T11:23:02.030Z,12.84
2023-10-20T11:25:31.295Z,12.83
2023-10-20T11:27:59.069Z,12.84
2023-10-20T11:30:28.398Z,12.61
2023-10-20T11:32:57.003Z,12.91
2023-10-20T11:35:26.322Z,12.84
2023-10-20T11:37:54.486Z,12.61
2023-10-20T11:40:23.927Z,12.80
2023-10-20T11:42:52.163Z,12.82
2023-10-20T11:45:21.588Z,12.61
2023-10-20T11:47:49.468Z,12.88
2023-10-20T11:50:19.618Z,12.91
2023-10-20T11:52:48.303Z,12.79
2023-10-20T11:55:16.167Z,12.75
2023-10-20T11:57:45.204Z,12.63
2023-10-20T12:00:14.890Z,12.67
2023-10-20T12:02:43.694Z,12.64
2023-10-20T12:05:11.869Z,12.56
2023-10-20T12:07:39.773Z,12.53
2023-10-20T12:10:08.854Z,12.56
2023-10-20T12:12:36.898Z,12.44
2023-10-20T12:15:09.422Z,12.54
2023-10-20T12:17:38.013Z,12.47
2023-10-20T12:20:07.203Z,12.42
2023-10-20T12:22:35.085Z,12.48
2023-10-20T12:25:03.282Z,12.43
2023-10-20T12:27:30.938Z,12.41
2023-10-20T12:29:58.671Z,12.48
2023-10-20T12:32:28.354Z,12.48
2023-10-20T12:34:56.641Z,12.46
2023-10-20T12:37:24.380Z,12.48
2023-10-20T12:39:52.215Z,12.48
2023-10-20T12:42:19.855Z,12.35
2023-10-20T12:44:47.554Z,12.33
2023-10-20T12:47:16.248Z,12.37
2023-10-20T12:49:46.077Z,12.28
2023-10-20T12:52:13.909Z,12.27
2023-10-20T12:54:42.832Z,12.25
2023-10-20T12:57:10.524Z,12.28
2023-10-20T12:59:38.206Z,12.31
2023-10-20T13:02:06.281Z,12.35
2023-10-20T13:04:34.271Z,12.27
2023-10-20T13:07:03.611Z,12.31
2023-10-20T13:09:31.395Z,12.29
2023-10-20T13:11:59.968Z,12.23
2023-10-20T13:14:28.398Z,12.23
2023-10-20T13:16:57.992Z,12.19
2023-10-20T13:19:25.701Z,12.20
2023-10-20T13:21:53.838Z,12.18
2023-10-20T13:24:22.878Z,12.14
2023-10-20T13:26:52.482Z,12.11
2023-10-20T13:29:20.357Z,12.14
2023-10-20T13:31:48.107Z,12.08
2023-10-20T13:34:15.773Z,12.09
2023-10-20T13:36:43.730Z,12.00
2023-10-20T13:41:45.385Z,11.96
2023-10-20T13:44:14.806Z,12.03
2023-10-20T13:46:42.557Z,12.02
2023-10-20T13:49:10.252Z,12.04
2023-10-20T13:51:38.003Z,11.89
2023-10-20T13:54:06.448Z,11.99
2023-10-20T13:56:34.242Z,12.05
2023-10-20T13:59:03.333Z,12.01
2023-10-20T14:01:31.033Z,11.94
2023-10-20T14:03:58.992Z,11.85
2023-10-20T14:06:27.128Z,11.96
2023-10-20T14:08:54.853Z,11.96
2023-10-20T14:11:22.634Z,11.97
2023-10-20T14:13:50.373Z,12.02
2023-10-20T14:16:19.463Z,11.98
2023-10-20T14:18:47.175Z,11.96
2023-10-20T14:21:15.343Z,12.02
2023-10-20T14:23:43.281Z,12.01
2023-10-20T14:26:11.036Z,12.09
2023-10-20T14:28:38.683Z,12.02
2023-10-20T14:31:06.678Z,12.09
2023-10-20T14:33:36.213Z,12.13
2023-10-20T14:36:04.100Z,12.11
2023-10-20T14:38:31.970Z,11.99
2023-10-20T14:41:03.875Z,12.11
2023-10-20T14:43:33.724Z,12.16
2023-10-20T14:46:01.844Z,12.20
2023-10-20T14:48:29.918Z,12.23
2023-10-20T14:51:00.672Z,12.25
2023-10-20T14:53:29.863Z,12.31
2023-10-20T14:55:57.592Z,12.34
2023-10-20T14:58:25.439Z,12.35
2023-10-20T15:00:53.098Z,12.33
2023-10-20T15:03:22.033Z,12.43
2023-10-20T15:05:50.588Z,12.45
2023-10-20T15:08:20.871Z,12.38
2023-10-20T15:10:48.603Z,12.50
2023-10-20T15:13:17.323Z,12.64
2023-10-20T15:15:45.020Z,12.68
2023-10-20T15:18:12.962Z,12.86
2023-10-20T15:20:42.223Z,12.88
2023-10-20T15:23:17.998Z,13.02
2023-10-20T15:25:48.305Z,13.18
2023-10-20T15:28:16.209Z,13.27
2023-10-20T15:30:43.889Z,13.25
2023-10-20T15:33:11.645Z,13.43
2023-10-20T15:35:41.228Z,13.54
2023-10-20T15:38:11.227Z,13.50
2023-10-20T15:40:39.017Z,13.62
2023-10-20T15:43:08.301Z,13.60
2023-10-20T15:45:36.115Z,13.57
2023-10-20T15:48:04.906Z,13.58
2023-10-20T15:50:33.563Z,13.57
2023-10-20T15:53:01.663Z,13.58
2023-10-20T15:55:29.374Z,13.58
2023-10-20T15:57:57.037Z,13.59
2023-10-20T16:00:26.430Z,13.56
2023-10-20T16:02:54.155Z,13.55
2023-10-20T16:05:22.366Z,13.49
2023-10-20T16:07:50.071Z,13.46
2023-10-20T16:10:17.805Z,13.48
2023-10-20T16:12:45.534Z,13.46
2023-10-20T16:15:13.934Z,13.42
2023-10-20T16:17:43.182Z,13.42
2023-10-20T16:20:12.492Z,13.37
2023-10-20T16:22:40.143Z,13.34
2023-10-20T16:25:09.144Z,13.30
2023-10-20T16:27:36.821Z,13.24
2023-10-20T16:30:06.385Z,13.23
2023-10-20T16:32:35.553Z,13.23
2023-10-20T16:35:05.254Z,13.20
2023-10-20T16:37:32.968Z,12.93
2023-10-20T16:40:01.481Z,13.19
2023-10-20T16:42:29.208Z,13.15
2023-10-20T16:44:56.994Z,13.16
2023-10-20T16:47:24.775Z,13.17
2023-10-20T16:49:52.976Z,13.16
2023-10-20T16:52:21.994Z,13.14
2023-10-20T16:54:52.497Z,13.19
2023-10-20T16:57:20.481Z,13.18
2023-10-20T16:59:48.169Z,13.09
2023-10-20T17:02:16.168Z,13.10
2023-10-20T17:04:43.879Z,13.11
2023-10-20T17:07:11.706Z,13.09
2023-10-20T17:09:40.731Z,13.08
2023-10-20T17:12:08.921Z,13.10
2023-10-20T17:14:36.676Z,13.02
2023-10-20T17:17:04.542Z,13.09
2023-10-20T17:19:32.231Z,13.08
2023-10-20T17:21:59.885Z,13.06
2023-10-20T17:24:27.938Z,13.09
2023-10-20T17:26:56.994Z,13.02
2023-10-20T17:29:24.682Z,13.06
2023-10-20T17:31:52.411Z,13.04
2023-10-20T17:34:20.129Z,13.03
2023-10-20T17:36:47.908Z,12.96
2023-10-20T17:39:15.845Z,12.91
2023-10-20T17:41:43.516Z,12.91
2023-10-20T17:44:13.445Z,12.93
2023-10-20T17:46:41.255Z,12.94
2023-10-20T17:49:10.154Z,12.95
2023-10-20T17:51:37.847Z,12.99
2023-10-20T17:54:06.055Z,12.99
2023-10-20T17:56:33.864Z,13.04
2023-10-20T17:59:01.749Z,13.01
2023-10-20T18:01:30.849Z,13.09
2023-10-20T18:03:58.663Z,13.02
2023-10-20T18:06:27.315Z,13.03
2023-10-20T18:08:55.061Z,13.06
2023-10-20T18:11:22.934Z,13.04
2023-10-20T18:13:52.286Z,13.07
2023-10-20T18:16:22.372Z,13.04
2023-10-20T18:18:52.575Z,13.07
2023-10-20T18:21:22.462Z,13.09
2023-10-20T18:23:52.055Z,13.05
2023-10-20T18:26:19.924Z,13.05
2023-10-20T18:28:47.562Z,13.05
2023-10-20T18:31:16.532Z,13.04
2023-10-20T18:33:44.949Z,13.09
2023-10-20T18:36:14.031Z,13.00
2023-10-20T18:38:41.808Z,13.05
2023-10-20T18:41:14.940Z,13.04
2023-10-20T18:43:42.672Z,12.99
2023-10-20T18:46:10.784Z,12.92
2023-10-20T18:48:38.631Z,12.92
2023-10-20T18:51:07.560Z,12.86
2023-10-20T18:53:37.003Z,12.89
2023-10-20T18:56:06.056Z,12.81
2023-10-20T18:58:33.753Z,12.85
2023-10-20T19:01:01.622Z,12.82
2023-10-20T19:03:32.737Z,12.76
2023-10-20T19:06:00.706Z,12.76
2023-10-20T19:08:28.527Z,12.68
2023-10-20T19:11:00.369Z,12.73
2023-10-20T19:13:28.039Z,12.72
2023-10-20T19:15:57.162Z,12.64
2023-10-20T19:18:25.136Z,12.64
2023-10-20T19:20:58.528Z,12.64
2023-10-20T19:23:26.639Z,12.61
2023-10-20T19:26:02.725Z,12.64
2023-10-20T19:28:30.725Z,12.56
2023-10-20T19:31:01.109Z,12.58
2023-10-20T19:33:29.199Z,12.53
2023-10-20T19:35:57.616Z,12.55
2023-10-20T19:38:26.461Z,12.46
2023-10-20T19:40:56.939Z,12.44
2023-10-20T19:43:27.219Z,12.46
2023-10-20T19:45:54.995Z,12.46
2023-10-20T19:48:23.089Z,12.40
2023-10-20T19:50:51.294Z,12.29
2023-10-20T19:53:19.048Z,12.26
2023-10-20T19:55:47.519Z,12.35
2023-10-20T19:58:15.270Z,12.33
2023-10-20T20:00:44.509Z,12.37
2023-10-20T20:03:12.636Z,12.36
2023-10-20T20:05:40.490Z,12.32
2023-10-20T20:08:08.785Z,12.32
2023-10-20T20:10:36.505Z,12.32
2023-10-20T20:13:04.717Z,12.31
2023-10-20T20:15:32.726Z,12.33
2023-10-20T20:18:01.879Z,12.31
2023-10-20T20:20:29.657Z,12.26
2023-10-20T20:22:57.375Z,12.25
2023-10-20T20:25:25.088Z,12.23
2023-10-20T20:27:53.352Z,12.25
2023-10-20T20:30:21.260Z,12.10
2023-10-20T20:32:49.006Z,12.19
2023-10-20T20:35:18.268Z,12.19
2023-10-20T20:37:47.742Z,11.99
2023-10-20T20:40:15.616Z,12.17
2023-10-20T20:42:43.318Z,12.20
2023-10-20T20:45:11.564Z,12.20
2023-10-20T20:47:39.317Z,12.23
2023-10-20T20:50:13.243Z,12.26
2023-10-20T20:52:48.148Z,12.21
2023-10-20T20:55:15.939Z,12.26
2023-10-20T20:57:43.714Z,12.34
2023-10-20T21:00:13.638Z,12.31
2023-10-20T21:02:41.498Z,12.27
2023-10-20T21:05:09.428Z,12.30
2023-10-20T21:07:37.148Z,12.30
2023-10-20T21:10:09.363Z,12.26
2023-10-20T21:12:37.720Z,12.25
2023-10-20T21:15:08.667Z,12.18
2023-10-20T21:17:36.502Z,12.19
2023-10-20T21:20:04.853Z,12.19
2023-10-20T21:22:32.521Z,12.19
2023-10-20T21:25:00.228Z,12.20
2023-10-20T21:27:29.840Z,12.21
2023-10-20T21:29:57.699Z,12.20
2023-10-20T21:32:25.608Z,12.15
2023-10-20T21:34:53.342Z,12.16
2023-10-20T21:37:21.002Z,12.11
2023-10-20T21:39:48.715Z,12.07
2023-10-20T21:42:16.444Z,12.14
2023-10-20T21:44:45.976Z,12.09
2023-10-20T21:47:13.914Z,12.06
2023-10-20T21:49:41.622Z,12.01
2023-10-20T21:52:09.269Z,12.06
2023-10-20T21:54:36.927Z,12.02
2023-10-20T21:57:04.675Z,12.02
2023-10-20T21:59:32.514Z,12.02
2023-10-20T22:02:08.973Z,11.96
2023-10-20T22:04:37.240Z,11.98
2023-10-20T22:07:05.861Z,11.89
2023-10-20T22:09:46.401Z,11.90
2023-10-20T22:12:21.100Z,11.87
2023-10-20T22:14:48.842Z,11.83
2023-10-20T22:17:17.987Z,11.80
2023-10-20T22:19:46.022Z,11.83
2023-10-20T22:22:13.747Z,11.81
2023-10-20T22:24:41.501Z,11.79
2023-10-20T22:27:09.222Z,11.51
2023-10-20T22:29:37.509Z,11.82
2023-10-20T22:32:06.281Z,11.84
2023-10-20T22:34:35.450Z,11.81
2023-10-20T22:37:04.528Z,11.83
2023-10-20T22:39:32.292Z,11.79
2023-10-20T22:42:01.259Z,11.81
2023-10-20T22:44:29.586Z,11.80
2023-10-20T22:46:57.311Z,11.80
2023-10-20T22:49:25.774Z,11.79
2023-10-20T22:51:54.873Z,11.75
2023-10-20T22:54:22.592Z,11.75
2023-10-20T22:56:50.309Z,11.68
2023-10-20T22:59:18.052Z,11.68
2023-10-20T23:01:45.849Z,11.60
2023-10-20T23:04:16.361Z,11.65
2023-10-20T23:06:45.986Z,11.60
2023-10-20T23:09:15.067Z,11.59
2023-10-20T23:11:42.892Z,11.68
2023-10-20T23:14:10.655Z,11.62
2023-10-20T23:16:38.478Z,11.62
2023-10-20T23:19:06.667Z,11.63
2023-10-20T23:21:34.450Z,11.67
2023-10-20T23:24:03.433Z,11.58
2023-10-20T23:26:32.585Z,11.65
2023-10-20T23:29:00.263Z,11.77
2023-10-20T23:31:28.463Z,11.74
2023-10-20T23:33:56.867Z,11.78
2023-10-20T23:36:24.534Z,11.77
2023-10-20T23:38:52.272Z,11.81
2023-10-20T23:41:19.931Z,11.78
2023-10-20T23:43:48.955Z,11.89
2023-10-20T23:46:16.647Z,11.91
2023-10-20T23:48:44.564Z,11.85
2023-10-20T23:51:12.337Z,11.82
2023-10-20T23:53:40.088Z,11.80
2023-10-20T23:56:08.170Z,11.84
2023-10-20T23:58:35.883Z,11.78
